sensor_id;sensor_type;location;lat;lon;timestamp;P1;durP1;ratioP1;P2;durP2;ratioP2
11220;SDS011;8517;53.546;10.104;2024-03-22T00:01:49;16.87;;;12.83;;
11220;SDS011;8517;53.546;10.104;2024-03-22T00:04:16;17.77;;;13.03;;
11220;SDS011;8517;53.546;10.104;2024-03-22T00:06:44;15.90;;;12.47;;
11220;SDS011;8517;53.546;10.104;2024-03-22T00:09:11;16.53;;;11.70;;
11220;SDS011;8517;53.546;10.104;2024-03-22T00:11:40;16.80;;;13.17;;
11220;SDS011;8517;53.546;10.104;2024-03-22T00:14:07;16.70;;;12.83;;
11220;SDS011;8517;53.546;10.104;2024-03-22T00:16:34;17.00;;;12.97;;
11220;SDS011;8517;53.546;10.104;2024-03-22T00:19:00;16.90;;;12.90;;
11220;SDS011;8517;53.546;10.104;2024-03-22T00:21:28;16.33;;;11.87;;
11220;SDS011;8517;53.546;10.104;2024-03-22T00:23:55;17.57;;;12.53;;
11220;SDS011;8517;53.546;10.104;2024-03-22T00:26:22;13.67;;;10.83;;
11220;SDS011;8517;53.546;10.104;2024-03-22T00:28:48;16.17;;;12.10;;
11220;SDS011;8517;53.546;10.104;2024-03-22T00:31:15;15.53;;;11.73;;
11220;SDS011;8517;53.546;10.104;2024-03-22T00:33:41;18.87;;;12.27;;
11220;SDS011;8517;53.546;10.104;2024-03-22T00:36:08;15.27;;;11.70;;
11220;SDS011;8517;53.546;10.104;2024-03-22T00:38:34;15.87;;;12.20;;
11220;SDS011;8517;53.546;10.104;2024-03-22T00:41:01;14.63;;;10.90;;
11220;SDS011;8517;53.546;10.104;2024-03-22T00:43:27;17.73;;;12.30;;
11220;SDS011;8517;53.546;10.104;2024-03-22T00:45:53;17.23;;;12.33;;
11220;SDS011;8517;53.546;10.104;2024-03-22T00:48:19;17.23;;;12.83;;
11220;SDS011;8517;53.546;10.104;2024-03-22T00:50:46;17.80;;;12.53;;
11220;SDS011;8517;53.546;10.104;2024-03-22T00:53:12;19.67;;;12.70;;
11220;SDS011;8517;53.546;10.104;2024-03-22T00:55:39;16.60;;;12.47;;
11220;SDS011;8517;53.546;10.104;2024-03-22T00:58:04;15.67;;;11.80;;
11220;SDS011;8517;53.546;10.104;2024-03-22T01:00:31;15.90;;;12.17;;
11220;SDS011;8517;53.546;10.104;2024-03-22T01:02:57;16.23;;;11.67;;
11220;SDS011;8517;53.546;10.104;2024-03-22T01:05:24;17.17;;;12.20;;
11220;SDS011;8517;53.546;10.104;2024-03-22T01:07:51;18.13;;;11.87;;
11220;SDS011;8517;53.546;10.104;2024-03-22T01:10:17;15.43;;;12.17;;
11220;SDS011;8517;53.546;10.104;2024-03-22T01:12:43;17.40;;;12.30;;
11220;SDS011;8517;53.546;10.104;2024-03-22T01:15:10;17.37;;;12.67;;
11220;SDS011;8517;53.546;10.104;2024-03-22T01:17:36;21.00;;;13.27;;
11220;SDS011;8517;53.546;10.104;2024-03-22T01:20:03;16.73;;;13.03;;
11220;SDS011;8517;53.546;10.104;2024-03-22T01:22:29;18.90;;;12.73;;
11220;SDS011;8517;53.546;10.104;2024-03-22T01:24:56;16.33;;;12.67;;
11220;SDS011;8517;53.546;10.104;2024-03-22T01:27:22;18.23;;;12.90;;
11220;SDS011;8517;53.546;10.104;2024-03-22T01:29:48;20.40;;;14.07;;
11220;SDS011;8517;53.546;10.104;2024-03-22T01:32:14;18.23;;;14.23;;
11220;SDS011;8517;53.546;10.104;2024-03-22T01:34:41;16.67;;;13.43;;
11220;SDS011;8517;53.546;10.104;2024-03-22T01:37:06;19.13;;;14.70;;
11220;SDS011;8517;53.546;10.104;2024-03-22T01:39:33;19.20;;;14.73;;
11220;SDS011;8517;53.546;10.104;2024-03-22T01:41:59;18.67;;;14.63;;
11220;SDS011;8517;53.546;10.104;2024-03-22T01:44:29;17.67;;;14.20;;
11220;SDS011;8517;53.546;10.104;2024-03-22T01:46:57;19.80;;;15.13;;
11220;SDS011;8517;53.546;10.104;2024-03-22T01:49:25;18.47;;;14.20;;
11220;SDS011;8517;53.546;10.104;2024-03-22T01:51:51;18.93;;;14.07;;
11220;SDS011;8517;53.546;10.104;2024-03-22T01:54:18;18.60;;;15.30;;
11220;SDS011;8517;53.546;10.104;2024-03-22T01:56:45;18.87;;;14.67;;
11220;SDS011;8517;53.546;10.104;2024-03-22T01:59:12;21.03;;;15.43;;
11220;SDS011;8517;53.546;10.104;2024-03-22T02:01:38;19.20;;;15.90;;
11220;SDS011;8517;53.546;10.104;2024-03-22T02:04:06;21.17;;;17.17;;
11220;SDS011;8517;53.546;10.104;2024-03-22T02:06:31;20.40;;;15.33;;
11220;SDS011;8517;53.546;10.104;2024-03-22T02:08:58;20.20;;;15.80;;
11220;SDS011;8517;53.546;10.104;2024-03-22T02:11:27;20.00;;;15.87;;
11220;SDS011;8517;53.546;10.104;2024-03-22T02:13:54;21.80;;;17.33;;
11220;SDS011;8517;53.546;10.104;2024-03-22T02:16:20;22.03;;;16.87;;
11220;SDS011;8517;53.546;10.104;2024-03-22T02:18:47;20.10;;;16.07;;
11220;SDS011;8517;53.546;10.104;2024-03-22T02:21:13;24.17;;;17.87;;
11220;SDS011;8517;53.546;10.104;2024-03-22T02:23:40;20.73;;;17.67;;
11220;SDS011;8517;53.546;10.104;2024-03-22T02:26:06;22.57;;;17.83;;
11220;SDS011;8517;53.546;10.104;2024-03-22T02:28:34;21.00;;;17.13;;
11220;SDS011;8517;53.546;10.104;2024-03-22T02:31:01;23.70;;;19.23;;
11220;SDS011;8517;53.546;10.104;2024-03-22T02:33:28;23.43;;;17.90;;
11220;SDS011;8517;53.546;10.104;2024-03-22T02:35:54;22.60;;;17.33;;
11220;SDS011;8517;53.546;10.104;2024-03-22T02:38:21;24.37;;;18.60;;
11220;SDS011;8517;53.546;10.104;2024-03-22T02:40:48;24.33;;;19.93;;
11220;SDS011;8517;53.546;10.104;2024-03-22T02:43:15;26.00;;;21.43;;
11220;SDS011;8517;53.546;10.104;2024-03-22T02:45:42;24.03;;;19.17;;
11220;SDS011;8517;53.546;10.104;2024-03-22T02:48:09;29.63;;;20.73;;
11220;SDS011;8517;53.546;10.104;2024-03-22T02:50:35;24.23;;;20.67;;
11220;SDS011;8517;53.546;10.104;2024-03-22T02:53:03;26.30;;;20.50;;
11220;SDS011;8517;53.546;10.104;2024-03-22T02:55:30;26.03;;;21.17;;
11220;SDS011;8517;53.546;10.104;2024-03-22T02:58:02;27.10;;;21.67;;
11220;SDS011;8517;53.546;10.104;2024-03-22T03:00:28;26.40;;;22.63;;
11220;SDS011;8517;53.546;10.104;2024-03-22T03:02:55;31.27;;;23.17;;
11220;SDS011;8517;53.546;10.104;2024-03-22T03:05:20;28.53;;;22.20;;
11220;SDS011;8517;53.546;10.104;2024-03-22T03:07:47;29.70;;;24.87;;
11220;SDS011;8517;53.546;10.104;2024-03-22T03:10:14;28.63;;;21.53;;
11220;SDS011;8517;53.546;10.104;2024-03-22T03:12:41;34.37;;;26.03;;
11220;SDS011;8517;53.546;10.104;2024-03-22T03:15:07;34.17;;;25.07;;
11220;SDS011;8517;53.546;10.104;2024-03-22T03:17:33;29.30;;;24.27;;
11220;SDS011;8517;53.546;10.104;2024-03-22T03:19:59;30.03;;;25.00;;
11220;SDS011;8517;53.546;10.104;2024-03-22T03:22:26;30.20;;;24.97;;
11220;SDS011;8517;53.546;10.104;2024-03-22T03:24:52;34.70;;;25.20;;
11220;SDS011;8517;53.546;10.104;2024-03-22T03:27:18;31.80;;;26.53;;
11220;SDS011;8517;53.546;10.104;2024-03-22T03:29:44;32.90;;;25.93;;
11220;SDS011;8517;53.546;10.104;2024-03-22T03:32:11;35.67;;;26.40;;
11220;SDS011;8517;53.546;10.104;2024-03-22T03:34:36;34.17;;;27.03;;
11220;SDS011;8517;53.546;10.104;2024-03-22T03:37:03;31.97;;;26.17;;
11220;SDS011;8517;53.546;10.104;2024-03-22T03:39:29;37.00;;;26.93;;
11220;SDS011;8517;53.546;10.104;2024-03-22T03:41:55;35.43;;;26.90;;
11220;SDS011;8517;53.546;10.104;2024-03-22T03:44:21;35.97;;;26.97;;
11220;SDS011;8517;53.546;10.104;2024-03-22T03:46:48;37.93;;;28.43;;
11220;SDS011;8517;53.546;10.104;2024-03-22T03:49:13;33.80;;;27.17;;
11220;SDS011;8517;53.546;10.104;2024-03-22T03:51:40;32.43;;;26.53;;
11220;SDS011;8517;53.546;10.104;2024-03-22T03:54:06;34.30;;;25.43;;
11220;SDS011;8517;53.546;10.104;2024-03-22T03:56:32;31.77;;;26.67;;
11220;SDS011;8517;53.546;10.104;2024-03-22T03:58:58;35.30;;;28.20;;
11220;SDS011;8517;53.546;10.104;2024-03-22T04:01:25;35.50;;;30.00;;
11220;SDS011;8517;53.546;10.104;2024-03-22T04:03:51;36.73;;;29.80;;
11220;SDS011;8517;53.546;10.104;2024-03-22T04:06:17;35.90;;;29.43;;
11220;SDS011;8517;53.546;10.104;2024-03-22T04:08:43;34.47;;;29.27;;
11220;SDS011;8517;53.546;10.104;2024-03-22T04:11:10;34.97;;;27.37;;
11220;SDS011;8517;53.546;10.104;2024-03-22T04:13:36;39.13;;;29.93;;
11220;SDS011;8517;53.546;10.104;2024-03-22T04:16:03;41.43;;;30.53;;
11220;SDS011;8517;53.546;10.104;2024-03-22T04:18:30;37.70;;;30.07;;
11220;SDS011;8517;53.546;10.104;2024-03-22T04:20:58;39.77;;;31.20;;
11220;SDS011;8517;53.546;10.104;2024-03-22T04:23:25;39.20;;;30.17;;
11220;SDS011;8517;53.546;10.104;2024-03-22T04:25:55;38.13;;;30.50;;
11220;SDS011;8517;53.546;10.104;2024-03-22T04:28:22;35.80;;;28.97;;
11220;SDS011;8517;53.546;10.104;2024-03-22T04:33:25;36.93;;;29.40;;
11220;SDS011;8517;53.546;10.104;2024-03-22T04:35:52;36.63;;;29.20;;
11220;SDS011;8517;53.546;10.104;2024-03-22T04:38:18;39.40;;;30.50;;
11220;SDS011;8517;53.546;10.104;2024-03-22T04:40:45;38.53;;;31.07;;
11220;SDS011;8517;53.546;10.104;2024-03-22T04:43:10;37.73;;;29.77;;
11220;SDS011;8517;53.546;10.104;2024-03-22T04:45:37;38.90;;;30.27;;
11220;SDS011;8517;53.546;10.104;2024-03-22T04:48:04;41.07;;;31.80;;
11220;SDS011;8517;53.546;10.104;2024-03-22T04:50:30;39.17;;;31.73;;
11220;SDS011;8517;53.546;10.104;2024-03-22T04:52:57;39.37;;;31.57;;
11220;SDS011;8517;53.546;10.104;2024-03-22T04:55:23;42.43;;;32.53;;
11220;SDS011;8517;53.546;10.104;2024-03-22T04:57:51;37.63;;;30.93;;
11220;SDS011;8517;53.546;10.104;2024-03-22T05:00:17;33.30;;;27.40;;
11220;SDS011;8517;53.546;10.104;2024-03-22T05:02:44;37.87;;;30.83;;
11220;SDS011;8517;53.546;10.104;2024-03-22T05:05:11;38.23;;;30.27;;
11220;SDS011;8517;53.546;10.104;2024-03-22T05:07:37;36.23;;;29.93;;
11220;SDS011;8517;53.546;10.104;2024-03-22T05:10:04;39.73;;;30.00;;
11220;SDS011;8517;53.546;10.104;2024-03-22T05:12:30;37.87;;;30.50;;
11220;SDS011;8517;53.546;10.104;2024-03-22T05:14:57;40.27;;;32.07;;
11220;SDS011;8517;53.546;10.104;2024-03-22T05:17:23;36.17;;;29.63;;
11220;SDS011;8517;53.546;10.104;2024-03-22T05:19:50;38.67;;;30.00;;
11220;SDS011;8517;53.546;10.104;2024-03-22T05:22:15;37.40;;;29.13;;
11220;SDS011;8517;53.546;10.104;2024-03-22T05:24:42;39.80;;;30.73;;
11220;SDS011;8517;53.546;10.104;2024-03-22T05:27:08;38.70;;;30.40;;
11220;SDS011;8517;53.546;10.104;2024-03-22T05:29:35;38.20;;;30.73;;
11220;SDS011;8517;53.546;10.104;2024-03-22T05:32:00;38.27;;;30.60;;
11220;SDS011;8517;53.546;10.104;2024-03-22T05:34:29;36.50;;;28.93;;
11220;SDS011;8517;53.546;10.104;2024-03-22T05:36:54;40.40;;;31.80;;
11220;SDS011;8517;53.546;10.104;2024-03-22T05:39:21;45.37;;;31.83;;
11220;SDS011;8517;53.546;10.104;2024-03-22T05:41:47;43.20;;;34.73;;
11220;SDS011;8517;53.546;10.104;2024-03-22T05:44:14;48.00;;;37.37;;
11220;SDS011;8517;53.546;10.104;2024-03-22T05:46:39;43.90;;;33.40;;
11220;SDS011;8517;53.546;10.104;2024-03-22T05:49:06;44.03;;;33.10;;
11220;SDS011;8517;53.546;10.104;2024-03-22T05:51:32;41.47;;;32.33;;
11220;SDS011;8517;53.546;10.104;2024-03-22T05:53:59;43.30;;;33.50;;
11220;SDS011;8517;53.546;10.104;2024-03-22T05:56:25;42.57;;;33.83;;
11220;SDS011;8517;53.546;10.104;2024-03-22T05:58:51;52.67;;;38.13;;
11220;SDS011;8517;53.546;10.104;2024-03-22T06:01:17;46.77;;;35.10;;
11220;SDS011;8517;53.546;10.104;2024-03-22T06:03:44;47.47;;;35.47;;
11220;SDS011;8517;53.546;10.104;2024-03-22T06:06:10;45.20;;;34.07;;
11220;SDS011;8517;53.546;10.104;2024-03-22T06:08:37;56.53;;;42.80;;
11220;SDS011;8517;53.546;10.104;2024-03-22T06:11:05;44.00;;;33.40;;
11220;SDS011;8517;53.546;10.104;2024-03-22T06:13:33;45.17;;;35.00;;
11220;SDS011;8517;53.546;10.104;2024-03-22T06:16:00;46.03;;;34.03;;
11220;SDS011;8517;53.546;10.104;2024-03-22T06:18:26;47.60;;;36.97;;
11220;SDS011;8517;53.546;10.104;2024-03-22T06:20:52;48.50;;;35.47;;
11220;SDS011;8517;53.546;10.104;2024-03-22T06:23:20;46.83;;;35.17;;
11220;SDS011;8517;53.546;10.104;2024-03-22T06:25:53;46.73;;;34.63;;
11220;SDS011;8517;53.546;10.104;2024-03-22T06:28:21;52.07;;;36.83;;
11220;SDS011;8517;53.546;10.104;2024-03-22T06:30:47;47.70;;;35.03;;
11220;SDS011;8517;53.546;10.104;2024-03-22T06:33:14;46.70;;;34.67;;
11220;SDS011;8517;53.546;10.104;2024-03-22T06:35:43;40.60;;;30.60;;
11220;SDS011;8517;53.546;10.104;2024-03-22T06:38:10;49.27;;;36.63;;
11220;SDS011;8517;53.546;10.104;2024-03-22T06:40:35;49.60;;;34.30;;
11220;SDS011;8517;53.546;10.104;2024-03-22T06:43:02;47.07;;;34.30;;
11220;SDS011;8517;53.546;10.104;2024-03-22T06:45:28;50.00;;;35.30;;
11220;SDS011;8517;53.546;10.104;2024-03-22T06:47:55;46.40;;;34.27;;
11220;SDS011;8517;53.546;10.104;2024-03-22T06:50:21;49.07;;;36.80;;
11220;SDS011;8517;53.546;10.104;2024-03-22T06:52:50;47.93;;;36.53;;
11220;SDS011;8517;53.546;10.104;2024-03-22T06:55:16;48.63;;;36.83;;
11220;SDS011;8517;53.546;10.104;2024-03-22T06:57:45;48.93;;;36.83;;
11220;SDS011;8517;53.546;10.104;2024-03-22T07:00:12;53.20;;;38.63;;
11220;SDS011;8517;53.546;10.104;2024-03-22T07:02:39;50.50;;;37.27;;
11220;SDS011;8517;53.546;10.104;2024-03-22T07:05:08;48.70;;;38.67;;
11220;SDS011;8517;53.546;10.104;2024-03-22T07:07:37;49.50;;;38.33;;
11220;SDS011;8517;53.546;10.104;2024-03-22T07:10:03;48.03;;;37.80;;
11220;SDS011;8517;53.546;10.104;2024-03-22T07:12:31;52.70;;;38.00;;
11220;SDS011;8517;53.546;10.104;2024-03-22T07:14:58;51.03;;;37.47;;
11220;SDS011;8517;53.546;10.104;2024-03-22T07:17:26;50.80;;;37.67;;
11220;SDS011;8517;53.546;10.104;2024-03-22T07:19:52;50.00;;;37.63;;
11220;SDS011;8517;53.546;10.104;2024-03-22T07:22:19;46.30;;;34.93;;
11220;SDS011;8517;53.546;10.104;2024-03-22T07:24:45;50.07;;;38.90;;
11220;SDS011;8517;53.546;10.104;2024-03-22T07:27:14;49.23;;;37.87;;
11220;SDS011;8517;53.546;10.104;2024-03-22T07:29:40;49.23;;;38.97;;
11220;SDS011;8517;53.546;10.104;2024-03-22T07:32:07;49.60;;;36.93;;
11220;SDS011;8517;53.546;10.104;2024-03-22T07:34:33;50.37;;;37.47;;
11220;SDS011;8517;53.546;10.104;2024-03-22T07:36:59;51.43;;;38.13;;
11220;SDS011;8517;53.546;10.104;2024-03-22T07:39:25;51.27;;;39.27;;
11220;SDS011;8517;53.546;10.104;2024-03-22T07:41:52;51.63;;;38.53;;
11220;SDS011;8517;53.546;10.104;2024-03-22T07:44:18;49.70;;;38.77;;
11220;SDS011;8517;53.546;10.104;2024-03-22T07:46:44;47.80;;;35.13;;
11220;SDS011;8517;53.546;10.104;2024-03-22T07:49:11;53.80;;;39.10;;
11220;SDS011;8517;53.546;10.104;2024-03-22T07:51:40;52.97;;;38.83;;
11220;SDS011;8517;53.546;10.104;2024-03-22T07:54:06;51.27;;;37.43;;
11220;SDS011;8517;53.546;10.104;2024-03-22T07:56:33;45.67;;;35.57;;
11220;SDS011;8517;53.546;10.104;2024-03-22T07:58:58;49.07;;;39.10;;
11220;SDS011;8517;53.546;10.104;2024-03-22T08:01:25;52.43;;;38.83;;
11220;SDS011;8517;53.546;10.104;2024-03-22T08:03:51;51.73;;;38.73;;
11220;SDS011;8517;53.546;10.104;2024-03-22T08:06:18;48.07;;;37.43;;
11220;SDS011;8517;53.546;10.104;2024-03-22T08:08:44;50.10;;;37.17;;
11220;SDS011;8517;53.546;10.104;2024-03-22T08:11:11;47.70;;;37.00;;
11220;SDS011;8517;53.546;10.104;2024-03-22T08:13:37;49.53;;;37.53;;
11220;SDS011;8517;53.546;10.104;2024-03-22T08:16:04;51.13;;;38.20;;
11220;SDS011;8517;53.546;10.104;2024-03-22T08:18:30;46.80;;;36.93;;
11220;SDS011;8517;53.546;10.104;2024-03-22T08:20:58;53.87;;;41.67;;
11220;SDS011;8517;53.546;10.104;2024-03-22T08:23:24;50.27;;;35.43;;
11220;SDS011;8517;53.546;10.104;2024-03-22T08:25:51;47.90;;;36.90;;
11220;SDS011;8517;53.546;10.104;2024-03-22T08:28:16;48.97;;;37.83;;
11220;SDS011;8517;53.546;10.104;2024-03-22T08:30:43;48.43;;;35.77;;
11220;SDS011;8517;53.546;10.104;2024-03-22T08:33:09;50.37;;;37.07;;
11220;SDS011;8517;53.546;10.104;2024-03-22T08:35:37;45.67;;;33.37;;
11220;SDS011;8517;53.546;10.104;2024-03-22T08:38:04;49.47;;;36.00;;
11220;SDS011;8517;53.546;10.104;2024-03-22T08:40:35;49.40;;;36.67;;
11220;SDS011;8517;53.546;10.104;2024-03-22T08:43:04;45.33;;;35.13;;
11220;SDS011;8517;53.546;10.104;2024-03-22T08:45:32;46.40;;;34.87;;
11220;SDS011;8517;53.546;10.104;2024-03-22T08:47:58;46.60;;;34.93;;
11220;SDS011;8517;53.546;10.104;2024-03-22T08:50:25;46.77;;;35.33;;
11220;SDS011;8517;53.546;10.104;2024-03-22T08:52:51;48.83;;;36.00;;
11220;SDS011;8517;53.546;10.104;2024-03-22T08:55:17;46.83;;;35.40;;
11220;SDS011;8517;53.546;10.104;2024-03-22T08:57:44;47.77;;;35.40;;
11220;SDS011;8517;53.546;10.104;2024-03-22T09:00:10;49.57;;;35.13;;
11220;SDS011;8517;53.546;10.104;2024-03-22T09:02:38;50.00;;;36.40;;
11220;SDS011;8517;53.546;10.104;2024-03-22T09:05:07;51.70;;;37.87;;
11220;SDS011;8517;53.546;10.104;2024-03-22T09:07:34;50.33;;;37.00;;
11220;SDS011;8517;53.546;10.104;2024-03-22T09:10:00;49.87;;;37.00;;
11220;SDS011;8517;53.546;10.104;2024-03-22T09:12:26;52.13;;;37.77;;
11220;SDS011;8517;53.546;10.104;2024-03-22T09:14:52;51.83;;;37.73;;
11220;SDS011;8517;53.546;10.104;2024-03-22T09:17:19;52.40;;;36.70;;
11220;SDS011;8517;53.546;10.104;2024-03-22T09:19:45;52.60;;;37.30;;
11220;SDS011;8517;53.546;10.104;2024-03-22T09:22:12;51.57;;;37.97;;
11220;SDS011;8517;53.546;10.104;2024-03-22T09:24:40;54.93;;;37.23;;
11220;SDS011;8517;53.546;10.104;2024-03-22T09:27:07;49.87;;;37.00;;
11220;SDS011;8517;53.546;10.104;2024-03-22T09:29:35;50.90;;;37.10;;
11220;SDS011;8517;53.546;10.104;2024-03-22T09:32:03;43.93;;;33.00;;
11220;SDS011;8517;53.546;10.104;2024-03-22T09:34:29;46.80;;;34.97;;
11220;SDS011;8517;53.546;10.104;2024-03-22T09:36:56;47.00;;;34.00;;
11220;SDS011;8517;53.546;10.104;2024-03-22T09:39:23;44.63;;;31.77;;
11220;SDS011;8517;53.546;10.104;2024-03-22T09:41:50;46.40;;;32.87;;
11220;SDS011;8517;53.546;10.104;2024-03-22T09:44:20;42.63;;;29.77;;
11220;SDS011;8517;53.546;10.104;2024-03-22T09:46:48;43.63;;;31.07;;
11220;SDS011;8517;53.546;10.104;2024-03-22T09:49:17;43.43;;;32.27;;
11220;SDS011;8517;53.546;10.104;2024-03-22T09:51:43;40.23;;;27.43;;
11220;SDS011;8517;53.546;10.104;2024-03-22T09:54:10;42.33;;;29.83;;
11220;SDS011;8517;53.546;10.104;2024-03-22T09:56:39;35.50;;;27.00;;
11220;SDS011;8517;53.546;10.104;2024-03-22T09:59:06;41.50;;;31.50;;
11220;SDS011;8517;53.546;10.104;2024-03-22T10:01:32;42.67;;;31.97;;
11220;SDS011;8517;53.546;10.104;2024-03-22T10:04:00;42.80;;;31.90;;
11220;SDS011;8517;53.546;10.104;2024-03-22T10:06:26;46.90;;;32.57;;
11220;SDS011;8517;53.546;10.104;2024-03-22T10:08:53;43.13;;;31.13;;
11220;SDS011;8517;53.546;10.104;2024-03-22T10:11:19;41.20;;;30.83;;
11220;SDS011;8517;53.546;10.104;2024-03-22T10:13:46;43.33;;;31.73;;
11220;SDS011;8517;53.546;10.104;2024-03-22T10:16:16;39.17;;;29.27;;
11220;SDS011;8517;53.546;10.104;2024-03-22T10:18:44;41.63;;;30.07;;
11220;SDS011;8517;53.546;10.104;2024-03-22T10:21:10;42.83;;;29.93;;
11220;SDS011;8517;53.546;10.104;2024-03-22T10:23:37;41.47;;;29.80;;
11220;SDS011;8517;53.546;10.104;2024-03-22T10:26:02;37.57;;;27.90;;
11220;SDS011;8517;53.546;10.104;2024-03-22T10:28:29;40.17;;;29.50;;
11220;SDS011;8517;53.546;10.104;2024-03-22T10:30:55;44.67;;;33.63;;
11220;SDS011;8517;53.546;10.104;2024-03-22T10:33:22;41.00;;;28.07;;
11220;SDS011;8517;53.546;10.104;2024-03-22T10:35:51;36.20;;;28.10;;
11220;SDS011;8517;53.546;10.104;2024-03-22T10:38:19;35.90;;;27.53;;
11220;SDS011;8517;53.546;10.104;2024-03-22T10:40:46;37.90;;;27.60;;
11220;SDS011;8517;53.546;10.104;2024-03-22T10:43:15;36.13;;;27.80;;
11220;SDS011;8517;53.546;10.104;2024-03-22T10:45:41;31.17;;;23.90;;
11220;SDS011;8517;53.546;10.104;2024-03-22T10:48:09;35.67;;;24.10;;
11220;SDS011;8517;53.546;10.104;2024-03-22T10:50:40;31.47;;;25.17;;
11220;SDS011;8517;53.546;10.104;2024-03-22T10:53:12;35.27;;;25.43;;
11220;SDS011;8517;53.546;10.104;2024-03-22T10:55:44;29.43;;;23.90;;
11220;SDS011;8517;53.546;10.104;2024-03-22T10:58:14;27.73;;;22.70;;
11220;SDS011;8517;53.546;10.104;2024-03-22T11:00:46;24.47;;;20.33;;
11220;SDS011;8517;53.546;10.104;2024-03-22T11:03:13;26.63;;;21.23;;
11220;SDS011;8517;53.546;10.104;2024-03-22T11:05:46;19.20;;;16.80;;
11220;SDS011;8517;53.546;10.104;2024-03-22T11:08:22;18.87;;;15.60;;
11220;SDS011;8517;53.546;10.104;2024-03-22T11:10:52;17.27;;;14.40;;
11220;SDS011;8517;53.546;10.104;2024-03-22T11:13:20;18.23;;;15.17;;
11220;SDS011;8517;53.546;10.104;2024-03-22T11:15:49;15.23;;;13.57;;
11220;SDS011;8517;53.546;10.104;2024-03-22T11:18:17;16.53;;;13.37;;
11220;SDS011;8517;53.546;10.104;2024-03-22T11:20:43;14.77;;;13.00;;
11220;SDS011;8517;53.546;10.104;2024-03-22T11:23:11;15.70;;;13.27;;
11220;SDS011;8517;53.546;10.104;2024-03-22T11:25:37;14.67;;;12.10;;
11220;SDS011;8517;53.546;10.104;2024-03-22T11:28:04;13.93;;;11.33;;
11220;SDS011;8517;53.546;10.104;2024-03-22T11:30:31;13.07;;;11.70;;
11220;SDS011;8517;53.546;10.104;2024-03-22T11:33:00;15.97;;;13.10;;
11220;SDS011;8517;53.546;10.104;2024-03-22T11:35:27;15.33;;;13.17;;
11220;SDS011;8517;53.546;10.104;2024-03-22T11:37:57;17.03;;;15.23;;
11220;SDS011;8517;53.546;10.104;2024-03-22T11:40:25;18.73;;;16.07;;
11220;SDS011;8517;53.546;10.104;2024-03-22T11:42:53;15.47;;;13.50;;
11220;SDS011;8517;53.546;10.104;2024-03-22T11:45:20;16.23;;;14.40;;
11220;SDS011;8517;53.546;10.104;2024-03-22T11:48:01;15.27;;;12.80;;
11220;SDS011;8517;53.546;10.104;2024-03-22T11:50:33;17.03;;;13.87;;
11220;SDS011;8517;53.546;10.104;2024-03-22T11:53:00;40.23;;;29.93;;
11220;SDS011;8517;53.546;10.104;2024-03-22T11:55:26;17.77;;;14.80;;
11220;SDS011;8517;53.546;10.104;2024-03-22T11:57:53;16.10;;;14.13;;
11220;SDS011;8517;53.546;10.104;2024-03-22T12:00:22;17.33;;;14.40;;
11220;SDS011;8517;53.546;10.104;2024-03-22T12:02:50;16.10;;;13.63;;
11220;SDS011;8517;53.546;10.104;2024-03-22T12:05:22;19.77;;;16.00;;
11220;SDS011;8517;53.546;10.104;2024-03-22T12:07:51;19.73;;;15.53;;
11220;SDS011;8517;53.546;10.104;2024-03-22T12:10:17;20.40;;;14.93;;
11220;SDS011;8517;53.546;10.104;2024-03-22T12:12:44;15.47;;;12.97;;
11220;SDS011;8517;53.546;10.104;2024-03-22T12:15:10;19.47;;;16.57;;
11220;SDS011;8517;53.546;10.104;2024-03-22T12:17:36;19.37;;;15.30;;
11220;SDS011;8517;53.546;10.104;2024-03-22T12:20:04;17.23;;;15.43;;
11220;SDS011;8517;53.546;10.104;2024-03-22T12:22:35;16.57;;;14.33;;
11220;SDS011;8517;53.546;10.104;2024-03-22T12:25:01;17.77;;;13.87;;
11220;SDS011;8517;53.546;10.104;2024-03-22T12:27:29;16.90;;;13.50;;
11220;SDS011;8517;53.546;10.104;2024-03-22T12:29:55;15.77;;;13.00;;
11220;SDS011;8517;53.546;10.104;2024-03-22T12:32:25;14.03;;;12.33;;
11220;SDS011;8517;53.546;10.104;2024-03-22T12:34:51;15.53;;;12.60;;
11220;SDS011;8517;53.546;10.104;2024-03-22T12:37:18;14.93;;;12.43;;
11220;SDS011;8517;53.546;10.104;2024-03-22T12:39:44;14.67;;;12.17;;
11220;SDS011;8517;53.546;10.104;2024-03-22T12:45:40;11.93;;;10.47;;
11220;SDS011;8517;53.546;10.104;2024-03-22T12:48:06;11.30;;;9.43;;
11220;SDS011;8517;53.546;10.104;2024-03-22T12:50:33;11.50;;;9.53;;
11220;SDS011;8517;53.546;10.104;2024-03-22T12:53:00;10.43;;;9.43;;
11220;SDS011;8517;53.546;10.104;2024-03-22T12:55:27;9.80;;;8.80;;
11220;SDS011;8517;53.546;10.104;2024-03-22T12:57:55;12.13;;;9.50;;
11220;SDS011;8517;53.546;10.104;2024-03-22T13:00:24;11.57;;;8.93;;
11220;SDS011;8517;53.546;10.104;2024-03-22T13:02:50;11.57;;;8.03;;
11220;SDS011;8517;53.546;10.104;2024-03-22T13:05:17;9.47;;;8.47;;
11220;SDS011;8517;53.546;10.104;2024-03-22T13:07:44;9.47;;;8.47;;
11220;SDS011;8517;53.546;10.104;2024-03-22T13:10:11;8.13;;;7.33;;
11220;SDS011;8517;53.546;10.104;2024-03-22T13:12:37;7.30;;;6.60;;
11220;SDS011;8517;53.546;10.104;2024-03-22T13:15:03;6.57;;;5.97;;
11220;SDS011;8517;53.546;10.104;2024-03-22T13:17:32;6.17;;;5.57;;
11220;SDS011;8517;53.546;10.104;2024-03-22T13:19:59;6.17;;;5.23;;
11220;SDS011;8517;53.546;10.104;2024-03-22T13:22:25;6.63;;;5.17;;
11220;SDS011;8517;53.546;10.104;2024-03-22T13:24:52;4.87;;;4.47;;
11220;SDS011;8517;53.546;10.104;2024-03-22T13:27:18;6.80;;;5.60;;
11220;SDS011;8517;53.546;10.104;2024-03-22T13:29:47;5.57;;;5.00;;
11220;SDS011;8517;53.546;10.104;2024-03-22T13:32:13;31.60;;;25.70;;
11220;SDS011;8517;53.546;10.104;2024-03-22T13:34:40;7.97;;;7.27;;
11220;SDS011;8517;53.546;10.104;2024-03-22T13:37:07;8.03;;;7.20;;
11220;SDS011;8517;53.546;10.104;2024-03-22T13:39:34;7.00;;;6.30;;
11220;SDS011;8517;53.546;10.104;2024-03-22T13:42:00;6.47;;;5.83;;
11220;SDS011;8517;53.546;10.104;2024-03-22T13:44:27;6.37;;;5.80;;
11220;SDS011;8517;53.546;10.104;2024-03-22T13:46:54;6.80;;;6.20;;
11220;SDS011;8517;53.546;10.104;2024-03-22T13:49:21;5.27;;;4.80;;
11220;SDS011;8517;53.546;10.104;2024-03-22T13:51:47;8.80;;;7.83;;
11220;SDS011;8517;53.546;10.104;2024-03-22T13:54:14;4.00;;;3.67;;
11220;SDS011;8517;53.546;10.104;2024-03-22T13:56:40;2.80;;;2.50;;
11220;SDS011;8517;53.546;10.104;2024-03-22T13:59:07;2.60;;;2.40;;
11220;SDS011;8517;53.546;10.104;2024-03-22T14:01:37;2.30;;;2.10;;
11220;SDS011;8517;53.546;10.104;2024-03-22T14:04:06;3.17;;;2.70;;
11220;SDS011;8517;53.546;10.104;2024-03-22T14:06:32;2.80;;;2.60;;
11220;SDS011;8517;53.546;10.104;2024-03-22T14:08:59;3.53;;;2.90;;
11220;SDS011;8517;53.546;10.104;2024-03-22T14:11:28;2.20;;;2.10;;
11220;SDS011;8517;53.546;10.104;2024-03-22T14:13:59;2.10;;;1.90;;
11220;SDS011;8517;53.546;10.104;2024-03-22T14:16:25;2.33;;;2.13;;
11220;SDS011;8517;53.546;10.104;2024-03-22T14:18:52;2.30;;;2.10;;
11220;SDS011;8517;53.546;10.104;2024-03-22T14:21:20;2.43;;;2.23;;
11220;SDS011;8517;53.546;10.104;2024-03-22T14:23:50;1.90;;;1.80;;
11220;SDS011;8517;53.546;10.104;2024-03-22T14:26:17;2.07;;;1.97;;
11220;SDS011;8517;53.546;10.104;2024-03-22T14:28:44;2.53;;;2.10;;